Terminal Aerodrome Forecast
Issued by NWS

Home | Current Version | Previous Version | Graphics & Text | Print | Product List | Glossary On
Versions: 1 2 3 4 5 6 7 8 9 10 11 12 13
587
FTUS43 KTOP 210752 AAA
TAFFOE
TAF AMD
KFOE 210752Z 2108/2206 18019G25KT P6SM BKN022
     FM212000 19017G25KT P6SM TSRA BKN020CB
     FM212300 30011KT 3SM SHRA VCTS OVC015CB
     FM220100 34012G23KT P6SM -SHRA BKN030=

USA.gov is the U.S. government's official web portal to all federal, state and local government web resources and services.